Time;durP1;ratioP1;P1;durP2;ratioP2;P2;SDS_P1;SDS_P2;PMS_P1;PMS_P2;Temp;Humidity;BMP_temperature;BMP_pressure;BME280_temperature;BME280_humidity;BME280_pressure;Samples;Min_cycle;Max_cycle;Signal;HPM_P1;HPM_P2
2022/11/01 00:04:55;;;;;;;13.30;10.63;;;;;;;15.32;55.13;99764.63;10508572;27;20265;-67
2022/11/01 00:11:11;;;;;;;14.33;11.20;;;;;;;14.30;57.30;99805.56;10503084;27;20861;-67
2022/11/01 00:17:27;;;;;;;14.80;11.17;;;;;;;14.63;57.09;99799.28;10509341;27;20194;-69
2022/11/01 00:23:43;;;;;;;15.77;11.30;;;;;;;15.43;55.43;99777.41;10459984;28;20325;-68
2022/11/01 00:29:58;;;;;;;15.33;11.10;;;;;;;15.01;56.28;99792.34;10463932;28;20299;-67
2022/11/01 00:36:13;;;;;;;15.57;11.33;;;;;;;15.25;56.34;99758.44;10454713;28;20309;-68
2022/11/01 00:42:29;;;;;;;19.20;11.60;;;;;;;14.50;57.33;99783.97;10442089;28;20876;-68
2022/11/01 00:48:45;;;;;;;14.20;10.30;;;;;;;14.09;58.99;99786.94;10463484;28;20218;-69
2022/11/01 00:55:01;;;;;;;15.63;10.27;;;;;;;15.95;54.42;99762.97;10510304;27;20340;-68
2022/11/01 01:01:16;;;;;;;19.23;10.97;;;;;;;14.53;56.67;99790.84;10476270;28;20226;-68
2022/11/01 01:07:33;;;;;;;15.87;11.13;;;;;;;13.30;60.75;99789.28;10477993;27;20321;-67
2022/11/01 01:13:48;;;;;;;15.37;10.10;;;;;;;14.52;58.36;99733.44;10495531;27;20209;-68
2022/11/01 01:20:04;;;;;;;18.87;11.93;;;;;;;14.71;57.86;99750.59;10504492;27;20241;-67
2022/11/01 01:26:19;;;;;;;16.17;10.60;;;;;;;13.45;58.92;99736.19;10510729;27;20222;-71
2022/11/01 01:32:35;;;;;;;16.67;10.60;;;;;;;13.89;59.49;99776.16;10509581;27;20229;-70
2022/11/01 01:38:52;;;;;;;14.23;10.83;;;;;;;15.92;54.93;99739.94;10507083;27;20202;-68
2022/11/01 01:45:07;;;;;;;15.73;10.37;;;;;;;15.45;55.77;99734.06;10504224;27;20665;-67
2022/11/01 01:51:22;;;;;;;14.63;10.00;;;;;;;14.55;58.66;99743.78;10510518;27;20222;-67
2022/11/01 01:57:38;;;;;;;17.93;11.03;;;;;;;13.92;59.85;99773.88;10503181;27;20186;-67
2022/11/01 02:03:54;;;;;;;15.43;10.33;;;;;;;15.73;56.25;99735.56;10509474;27;20276;-67
2022/11/01 02:10:12;;;;;;;14.50;10.80;;;;;;;13.98;58.88;99802.63;10470499;28;20240;-66
2022/11/01 15:20:39;;;;;;;6.83;2.10;;;;;;;16.72;47.52;100178.72;10516403;28;20221;-72
2022/11/01 15:25:43;;;;;;;4.97;2.27;;;;;;;17.45;46.37;100123.34;10536315;28;20237;-71
2022/11/01 15:30:53;;;;;;;4.17;2.03;;;;;;;16.44;48.09;100193.41;10537505;28;20225;-73
2022/11/01 15:35:58;;;;;;;6.97;2.77;;;;;;;16.60;48.20;100189.38;10539210;28;20278;-73
2022/11/01 15:41:19;;;;;;;8.57;3.10;;;;;;;15.56;48.54;100185.66;10531250;28;20268;-71
2022/11/01 15:46:45;;;;;;;5.80;2.73;;;;;;;15.76;48.68;100193.72;10543089;28;20205;-73
2022/11/01 15:52:21;;;;;;;7.93;2.63;;;;;;;16.49;47.96;100171.97;10511789;27;20218;-72
2022/11/01 15:57:57;;;;;;;6.43;3.10;;;;;;;16.94;47.58;100160.34;10523366;27;20313;-72
2022/11/01 16:03:38;;;;;;;8.47;3.50;;;;;;;16.41;48.61;100193.81;10555120;27;20232;-71
2022/11/01 16:09:13;;;;;;;7.53;3.87;;;;;;;16.51;47.98;100175.28;10594829;27;20212;-69
2022/11/01 16:14:40;;;;;;;7.63;4.30;;;;;;;16.49;47.95;100188.19;10598532;27;20224;-69
2022/11/01 16:20:24;;;;;;;5.60;3.10;;;;;;;15.76;48.94;100208.06;10589651;27;20209;-69
2022/11/01 16:26:03;;;;;;;6.47;3.10;;;;;;;14.84;50.29;100196.94;10592279;27;20303;-70
2022/11/01 16:31:32;;;;;;;6.13;2.60;;;;;;;16.05;48.48;100177.09;10587654;27;20213;-70
2022/11/01 16:36:57;;;;;;;6.87;2.73;;;;;;;15.31;49.63;100216.72;10588231;27;20196;-69
2022/11/01 16:42:23;;;;;;;9.67;4.37;;;;;;;14.99;49.48;100220.19;10589071;27;20212;-67
2022/11/01 16:47:49;;;;;;;7.20;3.30;;;;;;;14.99;49.64;100225.59;10587235;27;20217;-69
2022/11/01 16:53:15;;;;;;;9.10;4.50;;;;;;;15.78;48.11;100229.44;10576926;27;20208;-69
2022/11/01 16:58:41;;;;;;;11.87;5.27;;;;;;;16.06;48.23;100210.28;10578372;27;20224;-68
2022/11/01 17:04:10;;;;;;;7.83;4.63;;;;;;;16.64;47.50;100214.94;10590005;27;20233;-68
2022/11/01 17:09:36;;;;;;;10.20;4.93;;;;;;;16.21;48.69;100250.56;10581564;27;20197;-67
2022/11/01 17:15:01;;;;;;;6.93;3.20;;;;;;;14.62;50.36;100241.16;10586950;27;20228;-68
2022/11/01 17:20:28;;;;;;;5.07;2.73;;;;;;;16.60;47.61;100219.94;10590383;27;20224;-68
2022/11/01 17:25:54;;;;;;;9.93;3.50;;;;;;;14.61;50.03;100264.59;10586179;27;20232;-67
2022/11/01 17:31:20;;;;;;;5.27;2.50;;;;;;;15.46;49.00;100267.78;10581730;27;20185;-67
2022/11/01 17:36:48;;;;;;;6.10;2.87;;;;;;;14.98;49.25;100269.72;10574598;27;20766;-67
2022/11/01 17:42:13;;;;;;;6.77;3.53;;;;;;;15.73;48.43;100248.13;10567285;27;20220;-70
2022/11/01 17:47:39;;;;;;;7.87;4.00;;;;;;;15.13;48.37;100289.25;10585583;27;20619;-70
2022/11/01 17:53:06;;;;;;;8.03;2.90;;;;;;;15.72;47.89;100290.44;10587649;27;20856;-67
2022/11/01 17:58:31;;;;;;;14.00;6.73;;;;;;;14.75;48.84;100304.00;10581996;27;20209;-70
2022/11/01 18:03:57;;;;;;;12.47;6.30;;;;;;;15.27;48.27;100301.75;10587602;27;20586;-70
2022/11/01 18:09:23;;;;;;;22.90;12.27;;;;;;;15.30;48.75;100262.75;10586551;27;20839;-67
2022/11/01 18:14:52;;;;;;;15.67;10.67;;;;;;;15.81;46.94;100281.13;10589005;27;20688;-68
2022/11/01 18:20:42;;;;;;;6.27;3.07;;;;;;;15.12;47.77;100310.00;10571046;27;20204;-67
2022/11/01 18:26:33;;;;;;;7.03;3.87;;;;;;;15.29;47.75;100291.59;10542470;27;20720;-68
2022/11/01 18:32:22;;;;;;;8.57;3.33;;;;;;;14.35;49.12;100293.00;10536542;27;20236;-65
2022/11/01 18:38:15;;;;;;;8.23;5.13;;;;;;;14.88;48.50;100270.94;10595406;27;20901;-69
2022/11/01 18:43:41;;;;;;;10.97;6.23;;;;;;;14.04;49.75;100288.00;10557192;27;20228;-66
2022/11/01 18:49:11;;;;;;;21.77;11.30;;;;;;;14.97;47.76;100257.31;10593387;27;20196;-70
2022/11/01 18:54:46;;;;;;;6.30;2.93;;;;;;;13.74;49.46;100272.00;10596675;27;20217;-67
2022/11/01 19:00:13;;;;;;;5.67;3.10;;;;;;;13.04;49.61;100247.53;10596887;27;20287;-66
2022/11/01 19:05:39;;;;;;;5.07;3.13;;;;;;;12.32;50.86;100234.81;10585600;27;20699;-69
2022/11/01 19:11:10;;;;;;;8.03;3.20;;;;;;;12.57;50.26;100246.13;10589449;27;20209;-67
2022/11/01 19:16:36;;;;;;;8.93;3.10;;;;;;;12.15;50.89;100240.34;10559260;27;20217;-72
2022/11/01 19:22:23;;;;;;;10.70;3.53;;;;;;;11.87;52.00;100231.25;10557946;27;20240;-68
2022/11/01 19:27:52;;;;;;;4.90;2.30;;;;;;;12.52;51.04;100219.00;10582827;27;20871;-68
2022/11/01 19:33:32;;;;;;;5.80;2.77;;;;;;;12.42;50.81;100227.31;10571882;27;20213;-71
2022/11/01 19:38:59;;;;;;;5.03;3.13;;;;;;;10.94;53.14;100217.84;10556109;27;20634;-72
2022/11/01 19:44:26;;;;;;;7.13;3.00;;;;;;;11.72;52.79;100226.66;10542603;27;20918;-69
2022/11/01 19:49:53;;;;;;;9.00;3.80;;;;;;;11.03;53.32;100210.59;10543368;27;20736;-67
2022/11/01 19:55:37;;;;;;;8.30;3.60;;;;;;;11.59;53.12;100216.53;10588344;27;20228;-70
2022/11/01 20:00:38;;;;;;;7.90;4.50;;;;;;;11.99;52.06;100211.81;10575192;27;20225;-69
2022/11/01 20:05:40;;;;;;;10.10;3.20;;;;;;;11.37;53.85;100218.22;10574472;27;20256;-68
2022/11/01 20:10:42;;;;;;;5.73;3.20;;;;;;;11.45;53.90;100225.34;10572438;27;20286;-70
2022/11/01 20:15:44;;;;;;;6.50;3.23;;;;;;;10.66;55.33;100210.28;10570768;27;20239;-69
2022/11/01 20:20:46;;;;;;;10.70;5.17;;;;;;;10.89;54.35;100215.69;10567639;27;20229;-67
2022/11/01 20:25:50;;;;;;;14.03;7.87;;;;;;;11.86;52.04;100222.38;10573774;27;20256;-68
2022/11/01 20:30:52;;;;;;;13.03;6.73;;;;;;;11.96;52.51;100222.94;10577782;27;20303;-69
2022/11/01 20:35:54;;;;;;;14.37;4.23;;;;;;;11.30;52.95;100238.69;10555970;27;20240;-68
2022/11/01 20:40:56;;;;;;;10.50;4.30;;;;;;;12.43;51.22;100223.59;10552609;27;20232;-69
2022/11/01 20:45:57;;;;;;;11.23;4.00;;;;;;;12.60;50.32;100240.34;10568680;27;20232;-71
2022/11/01 20:50:59;;;;;;;11.57;4.50;;;;;;;13.77;48.35;100249.28;10569610;27;20225;-70
2022/11/01 20:56:02;;;;;;;7.77;3.23;;;;;;;12.89;49.92;100312.00;10566515;27;20262;-69
2022/11/01 21:01:10;;;;;;;9.27;3.73;;;;;;;13.61;48.62;100282.66;10569582;27;20233;-68
2022/11/01 21:06:15;;;;;;;7.67;3.53;;;;;;;12.98;49.62;100336.09;10547090;27;20253;-70
2022/11/01 21:11:42;;;;;;;7.50;2.87;;;;;;;13.05;49.13;100345.06;10570527;27;20237;-66
2022/11/01 21:16:46;;;;;;;4.67;3.07;;;;;;;12.35;50.28;100341.75;10565483;27;20229;-67
2022/11/01 21:21:57;;;;;;;12.10;5.87;;;;;;;12.33;50.61;100344.66;10576568;27;20248;-68
2022/11/01 21:27:04;;;;;;;8.53;3.60;;;;;;;;;;10575218;27;20233;-68
2022/11/01 21:32:33;;;;;;;6.93;3.97;;;;;;;12.78;50.74;100344.69;10577389;27;20766;-67
2022/11/01 21:37:35;;;;;;;8.60;4.00;;;;;;;13.26;50.50;100320.09;10576138;27;20228;-67
2022/11/01 21:42:37;;;;;;;6.93;3.43;;;;;;;10.87;54.64;100326.66;10573982;27;20668;-68
2022/11/01 21:47:39;;;;;;;9.80;3.57;;;;;;;11.86;53.29;100321.59;10576684;27;20280;-69
2022/11/01 21:52:46;;;;;;;6.07;3.03;;;;;;;11.52;53.32;100320.09;10580092;27;20877;-68
2022/11/01 21:57:48;;;;;;;9.57;3.30;;;;;;;10.89;54.47;100316.59;10569222;27;20361;-67
2022/11/01 22:02:49;;;;;;;6.53;3.33;;;;;;;10.85;55.54;100309.94;10568083;27;20225;-69
2022/11/01 22:07:51;;;;;;;6.50;4.00;;;;;;;10.92;55.52;100304.69;10569239;27;20229;-69
2022/11/01 22:12:52;;;;;;;6.63;3.80;;;;;;;12.04;53.55;100280.19;10568853;27;20225;-70
2022/11/01 22:17:54;;;;;;;18.30;4.30;;;;;;;10.42;55.74;100314.69;10568331;27;20232;-67
2022/11/01 22:22:55;;;;;;;9.53;3.40;;;;;;;11.32;54.81;100311.72;10568397;27;20264;-67
2022/11/01 22:27:57;;;;;;;7.13;3.10;;;;;;;10.64;55.64;100318.50;10568245;27;20232;-70
2022/11/01 22:32:59;;;;;;;6.90;3.10;;;;;;;10.41;56.13;100313.88;10574441;27;20241;-67
2022/11/01 22:38:09;;;;;;;8.23;3.80;;;;;;;11.31;54.84;100307.34;10567596;27;20255;-66
2022/11/01 22:43:16;;;;;;;6.63;2.80;;;;;;;11.78;54.22;100298.34;10577091;27;20762;-67
2022/11/01 22:48:21;;;;;;;9.60;3.73;;;;;;;12.24;52.88;100315.38;10563326;27;20843;-69
2022/11/01 22:53:24;;;;;;;7.30;3.43;;;;;;;12.36;53.01;100292.44;10569753;27;20975;-67
2022/11/01 22:58:33;;;;;;;7.13;3.30;;;;;;;12.96;51.28;100322.84;10568722;27;20278;-67
2022/11/01 23:03:40;;;;;;;8.13;4.13;;;;;;;13.17;50.59;100329.28;10595837;27;20296;-69
2022/11/01 23:08:41;;;;;;;8.03;3.87;;;;;;;13.13;50.65;100326.16;10612277;27;20978;-69
2022/11/01 23:19:08;;;;;;;7.53;3.00;;;;;;;11.89;53.03;100369.47;10609964;27;20243;-66
2022/11/01 23:24:09;;;;;;;10.40;3.80;;;;;;;12.00;54.05;100347.59;10602417;27;20630;-68
2022/11/01 23:29:11;;;;;;;9.80;3.83;;;;;;;11.33;54.66;100358.09;10610331;27;20223;-70
2022/11/01 23:34:13;;;;;;;4.70;3.20;;;;;;;10.94;55.72;100350.91;10607586;27;20231;-66
2022/11/01 23:39:14;;;;;;;6.57;3.10;;;;;;;10.35;57.64;100337.78;10609135;27;20272;-68
2022/11/01 23:44:27;;;;;;;7.93;3.63;;;;;;;9.76;59.94;100312.88;10607746;27;20252;-70
2022/11/01 23:49:31;;;;;;;6.93;3.10;;;;;;;10.11;59.81;100296.69;10607547;27;20805;-67
2022/11/01 23:54:40;;;;;;;9.33;3.67;;;;;;;10.65;57.91;100294.22;10611646;27;20289;-69
2022/11/01 23:59:42;;;;;;;5.53;3.00;;;;;;;9.43;60.60;100303.97;10613161;27;20223;-70
